Time;durP1;ratioP1;P1;durP2;ratioP2;P2;SDS_P1;SDS_P2;PMS_P1;PMS_P2;Temp;Humidity;BMP_temperature;BMP_pressure;BME280_temperature;BME280_humidity;BME280_pressure;Samples;Min_cycle;Max_cycle;Signal;HPM_P1;HPM_P2
2021/12/06 00:01:38;;;;;;;;;;;0.80;99.90;;;;;;8360012;28;20304;-64
2021/12/06 00:05:38;;;;;;;;;;;0.80;99.90;;;;;;8336340;28;20290;-64
2021/12/06 00:09:39;;;;;;;;;;;0.90;99.90;;;;;;8309983;28;19920;-64
2021/12/06 00:13:42;;;;;;;;;;;0.80;99.90;;;;;;8328088;28;19909;-64
2021/12/06 00:17:43;;;;;;;;;;;0.80;99.90;;;;;;8328137;28;19913;-64
2021/12/06 00:21:43;;;;;;;;;;;0.70;99.90;;;;;;8327533;28;19916;-63
2021/12/06 00:25:43;;;;;;;;;;;0.70;99.90;;;;;;8309803;28;20409;-63
2021/12/06 00:29:45;;;;;;;;;;;0.90;99.90;;;;;;8327364;28;20290;-64
2021/12/06 00:33:45;;;;;;;;;;;0.70;99.90;;;;;;8311374;28;20052;-63
2021/12/06 00:38:00;;;;;;;;;;;0.70;99.90;;;;;;8312939;28;20387;-64
2021/12/06 00:42:01;;;;;;;;;;;1.00;99.90;;;;;;8342385;28;19979;-63
2021/12/06 00:46:01;;;;;;;;;;;1.00;99.90;;;;;;8326538;28;19956;-64
2021/12/06 00:50:03;;;;;;;;;;;0.90;99.90;;;;;;8329606;28;19917;-63
2021/12/06 00:54:04;;;;;;;;;;;0.90;99.90;;;;;;8360239;28;20398;-64
2021/12/06 00:58:04;;;;;;;;;;;1.10;99.90;;;;;;8360118;28;19913;-63
2021/12/06 01:02:05;;;;;;;;;;;1.10;99.90;;;;;;8353582;28;19916;-64
2021/12/06 01:06:08;;;;;;;;;;;1.10;99.90;;;;;;8330883;28;19913;-64
2021/12/06 01:10:09;;;;;;;;;;;1.00;99.90;;;;;;8348459;28;20379;-64
2021/12/06 01:14:10;;;;;;;;;;;0.80;99.90;;;;;;8366411;28;20306;-63
2021/12/06 01:18:13;;;;;;;;;;;0.90;99.90;;;;;;8362704;28;19995;-64
2021/12/06 01:22:22;;;;;;;;;;;0.80;99.90;;;;;;8325867;28;20376;-64
2021/12/06 01:39:18;;;;;;;;;;;0.60;99.90;;;;;;8346392;28;19928;-64
2021/12/06 01:43:18;;;;;;;;;;;0.40;99.90;;;;;;8365026;28;19908;-64
2021/12/06 01:47:24;;;;;;;;;;;0.60;99.90;;;;;;8364955;28;19932;-64
2021/12/06 01:51:25;;;;;;;;;;;0.50;99.90;;;;;;8351729;28;19917;-63
2021/12/06 01:55:27;;;;;;;;;;;0.50;99.90;;;;;;8315050;28;19914;-64
2021/12/06 01:59:28;;;;;;;;;;;0.50;99.90;;;;;;8331852;28;19916;-65
2021/12/06 02:03:29;;;;;;;;;;;0.60;99.90;;;;;;8330704;28;20386;-64
2021/12/06 02:07:29;;;;;;;;;;;0.70;99.90;;;;;;8331286;28;19920;-64
2021/12/06 02:11:33;;;;;;;;;;;0.80;99.90;;;;;;8332210;28;19917;-64
2021/12/06 02:15:45;;;;;;;;;;;0.50;99.90;;;;;;8331235;28;20011;-64
2021/12/06 02:19:49;;;;;;;;;;;0.70;99.90;;;;;;8330462;28;19909;-64
2021/12/06 02:23:49;;;;;;;;;;;0.70;99.90;;;;;;8312294;28;19909;-64
2021/12/06 02:27:51;;;;;;;;;;;0.50;99.90;;;;;;8338519;28;20396;-64
2021/12/06 02:31:52;;;;;;;;;;;0.50;99.90;;;;;;8358886;28;20375;-64
2021/12/06 02:35:52;;;;;;;;;;;0.20;99.90;;;;;;8330470;28;19921;-64
2021/12/06 02:39:53;;;;;;;;;;;0.10;99.90;;;;;;8312955;28;19913;-65
2021/12/06 02:43:54;;;;;;;;;;;-0.10;99.90;;;;;;8355451;28;19920;-64
2021/12/06 02:47:55;;;;;;;;;;;-0.10;99.90;;;;;;8362957;28;20003;-64
2021/12/06 02:51:56;;;;;;;;;;;-0.10;99.90;;;;;;8362787;28;19913;-64
2021/12/06 02:55:59;;;;;;;;;;;-0.30;99.90;;;;;;8340410;28;20409;-64
2021/12/06 03:00:00;;;;;;;;;;;-0.20;99.90;;;;;;8311730;28;19916;-65
2021/12/06 03:04:01;;;;;;;;;;;-0.10;99.90;;;;;;8332350;28;20253;-64
2021/12/06 03:08:02;;;;;;;;;;;-0.20;99.90;;;;;;8338316;28;19913;-64
2021/12/06 03:12:08;;;;;;;;;;;0.00;99.90;;;;;;8360802;28;19917;-63
2021/12/06 03:16:08;;;;;;;;;;;0.00;99.90;;;;;;8361957;28;19963;-65
2021/12/06 03:20:13;;;;;;;;;;;-0.30;99.90;;;;;;8354137;28;19913;-63
2021/12/06 03:24:14;;;;;;;;;;;-0.20;99.90;;;;;;8339904;28;20110;-64
2021/12/06 03:28:14;;;;;;;;;;;-0.10;99.90;;;;;;8343066;28;19917;-64
2021/12/06 03:32:15;;;;;;;;;;;0.00;99.90;;;;;;8328280;28;19968;-64
2021/12/06 03:36:16;;;;;;;;;;;-0.20;99.90;;;;;;8328190;28;19925;-64
2021/12/06 03:40:17;;;;;;;;;;;-0.20;99.90;;;;;;8339455;28;19917;-64
2021/12/06 03:44:20;;;;;;;;;;;-0.10;99.90;;;;;;8361515;28;19916;-64
2021/12/06 03:48:20;;;;;;;;;;;0.00;99.90;;;;;;8361160;28;20380;-64
2021/12/06 03:52:21;;;;;;;;;;;0.20;99.90;;;;;;8360901;28;19923;-64
2021/12/06 03:56:22;;;;;;;;;;;0.30;99.90;;;;;;8327294;28;19917;-64
2021/12/06 04:00:22;;;;;;;;;;;0.40;99.90;;;;;;8326513;28;19924;-63
2021/12/06 04:04:23;;;;;;;;;;;0.40;99.90;;;;;;8309688;28;19909;-63
2021/12/06 04:08:25;;;;;;;;;;;0.40;99.90;;;;;;8327645;28;19916;-64
2021/12/06 04:12:26;;;;;;;;;;;0.40;99.90;;;;;;8344572;28;19921;-64
2021/12/06 04:16:26;;;;;;;;;;;0.40;99.90;;;;;;8360481;28;19913;-64
2021/12/06 04:20:27;;;;;;;;;;;0.40;99.90;;;;;;8360206;28;20375;-63
2021/12/06 04:24:28;;;;;;;;;;;0.60;99.90;;;;;;8360341;28;20011;-63
2021/12/06 04:28:30;;;;;;;;;;;0.60;99.90;;;;;;8342567;28;19913;-64
2021/12/06 04:32:30;;;;;;;;;;;0.60;99.90;;;;;;8325715;28;20375;-64
2021/12/06 04:36:31;;;;;;;;;;;0.50;99.90;;;;;;8326375;28;19917;-64
2021/12/06 04:40:32;;;;;;;;;;;0.40;99.90;;;;;;8325578;28;19989;-63
2021/12/06 04:44:32;;;;;;;;;;;0.40;99.90;;;;;;8341207;28;20344;-64
2021/12/06 04:48:32;;;;;;;;;;;0.40;99.90;;;;;;8342499;28;19909;-66
2021/12/06 04:52:33;;;;;;;;;;;0.40;99.90;;;;;;8333672;28;19999;-64
2021/12/06 04:56:38;;;;;;;;;;;0.70;99.90;;;;;;8294055;28;20007;-63
2021/12/06 05:00:48;;;;;;;;;;;0.70;99.90;;;;;;8338746;28;19935;-65
2021/12/06 05:04:50;;;;;;;;;;;0.90;99.90;;;;;;8329217;28;19913;-64
2021/12/06 05:08:53;;;;;;;;;;;0.90;99.90;;;;;;8325612;28;19963;-63
2021/12/06 05:12:53;;;;;;;;;;;0.90;99.90;;;;;;8328239;28;19912;-64
2021/12/06 05:16:54;;;;;;;;;;;0.80;99.90;;;;;;8356050;28;20003;-64
2021/12/06 05:20:55;;;;;;;;;;;0.90;99.90;;;;;;8341434;28;19920;-64
2021/12/06 05:24:56;;;;;;;;;;;0.90;99.90;;;;;;8352295;28;20272;-63
2021/12/06 05:29:00;;;;;;;;;;;0.90;99.90;;;;;;8326517;28;19952;-63
2021/12/06 05:33:02;;;;;;;;;;;0.80;99.90;;;;;;8326222;28;19979;-63
2021/12/06 05:37:03;;;;;;;;;;;1.00;99.90;;;;;;8306375;28;19925;-63
2021/12/06 05:41:03;;;;;;;;;;;1.00;99.90;;;;;;8326046;28;19909;-64
2021/12/06 05:45:05;;;;;;;;;;;0.90;99.90;;;;;;8325657;28;20058;-64
2021/12/06 05:49:05;;;;;;;;;;;0.80;99.90;;;;;;8319270;28;19967;-64
2021/12/06 05:53:06;;;;;;;;;;;0.90;99.90;;;;;;8327702;28;20330;-64
2021/12/06 05:57:07;;;;;;;;;;;0.90;99.90;;;;;;8314378;28;19931;-64
2021/12/06 06:01:09;;;;;;;;;;;0.80;99.90;;;;;;8330271;28;19913;-64
2021/12/06 06:05:09;;;;;;;;;;;0.60;99.90;;;;;;8330140;28;20299;-64
2021/12/06 06:26:32;;;;;;;;;;;0.50;99.90;;;;;;8420926;28;19916;-67
2021/12/06 06:30:33;;;;;;;;;;;0.70;99.90;;;;;;8417890;28;19913;-67
2021/12/06 06:34:34;;;;;;;;;;;0.70;99.90;;;;;;8402313;28;19917;-67
2021/12/06 06:38:34;;;;;;;;;;;0.60;99.90;;;;;;8385335;28;20345;-64
2021/12/06 06:42:35;;;;;;;;;;;0.80;99.90;;;;;;8399508;28;20448;-64
2021/12/06 06:46:35;;;;;;;;;;;0.90;99.90;;;;;;8416388;28;20310;-65
2021/12/06 06:50:36;;;;;;;;;;;1.00;99.90;;;;;;8389965;28;19909;-66
2021/12/06 06:54:36;;;;;;;;;;;0.90;99.90;;;;;;8401940;28;19960;-65
2021/12/06 06:58:37;;;;;;;;;;;0.80;99.90;;;;;;8398869;28;19913;-64
2021/12/06 07:02:38;;;;;;;;;;;1.00;99.90;;;;;;8401829;28;19908;-64
2021/12/06 07:06:38;;;;;;;;;;;0.80;99.90;;;;;;8401274;28;19920;-64
2021/12/06 07:10:39;;;;;;;;;;;0.60;99.90;;;;;;8406313;28;19920;-63
2021/12/06 07:14:39;;;;;;;;;;;0.80;99.90;;;;;;8411526;28;19912;-64
2021/12/06 07:18:40;;;;;;;;;;;1.10;99.90;;;;;;8444692;28;20330;-63
2021/12/06 07:22:41;;;;;;;;;;;1.20;99.90;;;;;;8422871;28;19913;-65
2021/12/06 07:26:41;;;;;;;;;;;1.30;99.90;;;;;;8387723;28;20407;-65
2021/12/06 07:30:42;;;;;;;;;;;1.20;99.90;;;;;;8429580;28;19943;-65
2021/12/06 07:34:42;;;;;;;;;;;1.50;99.90;;;;;;8374689;28;19952;-63
2021/12/06 07:38:43;;;;;;;;;;;1.50;99.90;;;;;;8381613;28;19912;-64
2021/12/06 07:42:44;;;;;;;;;;;1.20;99.90;;;;;;8369137;28;19913;-63
2021/12/06 07:46:46;;;;;;;;;;;1.30;99.90;;;;;;8388659;28;19918;-63
2021/12/06 07:50:47;;;;;;;;;;;1.30;99.90;;;;;;8391882;28;19913;-65
2021/12/06 07:54:47;;;;;;;;;;;1.20;99.90;;;;;;8383406;28;20003;-64
2021/12/06 07:58:48;;;;;;;;;;;1.40;99.90;;;;;;8384788;28;19912;-64
2021/12/06 08:02:49;;;;;;;;;;;1.70;99.90;;;;;;8378975;28;20602;-65
2021/12/06 08:06:49;;;;;;;;;;;1.50;99.90;;;;;;8388476;28;19939;-65
2021/12/06 08:10:52;;;;;;;;;;;1.50;99.90;;;;;;8393808;28;20046;-64
2021/12/06 08:14:52;;;;;;;;;;;1.50;99.90;;;;;;8374767;28;19920;-65
2021/12/06 08:18:53;;;;;;;;;;;1.40;99.90;;;;;;8429667;28;19912;-64
2021/12/06 08:22:53;;;;;;;;;;;1.50;99.90;;;;;;8399955;28;19919;-64
2021/12/06 08:26:54;;;;;;;;;;;1.60;99.90;;;;;;8396009;28;19909;-63
2021/12/06 08:30:54;;;;;;;;;;;1.60;99.90;;;;;;8395700;28;19958;-65
2021/12/06 08:34:55;;;;;;;;;;;1.60;99.90;;;;;;8392448;28;20015;-64
2021/12/06 08:38:55;;;;;;;;;;;1.60;99.90;;;;;;8370159;28;20292;-64
2021/12/06 08:42:56;;;;;;;;;;;1.70;99.90;;;;;;8365801;28;19920;-65
2021/12/06 08:46:57;;;;;;;;;;;1.70;99.90;;;;;;8397399;28;19912;-64
2021/12/06 08:50:59;;;;;;;;;;;1.90;99.90;;;;;;8406600;28;19995;-64
2021/12/06 08:54:59;;;;;;;;;;;1.90;99.90;;;;;;8379387;28;19920;-64
2021/12/06 08:59:00;;;;;;;;;;;2.10;99.90;;;;;;8377440;28;19915;-64
2021/12/06 09:03:01;;;;;;;;;;;2.20;99.90;;;;;;8376313;28;19923;-64
2021/12/06 09:07:02;;;;;;;;;;;2.40;99.90;;;;;;8369257;28;19913;-65
2021/12/06 09:11:04;;;;;;;;;;;2.30;99.90;;;;;;8384255;28;19908;-64
2021/12/06 09:15:10;;;;;;;;;;;2.40;99.90;;;;;;8376946;28;19917;-64
2021/12/06 09:19:11;;;;;;;;;;;2.50;99.90;;;;;;8377915;28;19999;-64
2021/12/06 09:23:12;;;;;;;;;;;2.80;99.90;;;;;;8370206;28;19921;-65
2021/12/06 09:27:13;;;;;;;;;;;3.00;99.90;;;;;;8374573;28;19919;-64
2021/12/06 09:31:15;;;;;;;;;;;3.30;99.90;;;;;;8374471;28;19912;-65
2021/12/06 09:35:21;;;;;;;;;;;3.60;99.90;;;;;;8375569;28;20391;-63
2021/12/06 09:39:21;;;;;;;;;;;3.60;99.90;;;;;;8375453;28;20089;-65
2021/12/06 09:43:22;;;;;;;;;;;3.90;99.90;;;;;;8381568;28;19919;-66
2021/12/06 09:47:23;;;;;;;;;;;4.00;99.90;;;;;;8380231;28;19913;-65
2021/12/06 09:51:25;;;;;;;;;;;3.90;99.90;;;;;;8374616;28;19913;-66
2021/12/06 09:55:26;;;;;;;;;;;4.00;99.90;;;;;;8374891;28;19982;-66
2021/12/06 09:59:26;;;;;;;;;;;4.10;99.90;;;;;;8377445;28;19913;-66
2021/12/06 10:03:29;;;;;;;;;;;4.20;99.90;;;;;;8372593;28;20344;-65
2021/12/06 10:07:31;;;;;;;;;;;4.30;99.90;;;;;;8375875;28;20303;-66
2021/12/06 10:11:32;;;;;;;;;;;4.40;99.90;;;;;;8369255;28;19945;-66
2021/12/06 10:15:33;;;;;;;;;;;4.30;99.90;;;;;;8373669;28;20015;-66
2021/12/06 10:19:34;;;;;;;;;;;4.40;99.90;;;;;;8372995;28;20011;-66
2021/12/06 10:23:38;;;;;;;;;;;4.40;99.90;;;;;;8375765;28;19925;-65
2021/12/06 10:27:38;;;;;;;;;;;4.50;99.90;;;;;;8364627;28;19913;-66
2021/12/06 10:31:40;;;;;;;;;;;4.50;99.90;;;;;;8363493;28;19921;-66
2021/12/06 10:35:42;;;;;;;;;;;4.90;99.90;;;;;;8388707;28;19944;-66
2021/12/06 10:39:43;;;;;;;;;;;5.80;99.90;;;;;;8374554;28;19946;-66
2021/12/06 10:43:55;;;;;;;;;;;6.30;99.90;;;;;;8391662;28;20035;-66
2021/12/06 10:48:06;;;;;;;;;;;6.20;99.90;;;;;;8391934;28;20526;-65
2021/12/06 10:52:07;;;;;;;;;;;6.30;99.90;;;;;;8357562;28;19917;-66
2021/12/06 10:56:14;;;;;;;;;;;6.40;99.90;;;;;;8377461;28;19913;-66
2021/12/06 11:00:37;;;;;;;;;;;6.10;99.90;;;;;;8386167;28;19961;-66
2021/12/06 11:04:38;;;;;;;;;;;6.20;99.90;;;;;;8365293;28;19923;-66
2021/12/06 11:08:40;;;;;;;;;;;5.60;99.90;;;;;;8364219;28;20427;-65
2021/12/06 11:12:40;;;;;;;;;;;5.00;99.90;;;;;;8364986;28;19962;-66
2021/12/06 11:16:42;;;;;;;;;;;5.50;99.90;;;;;;8407059;28;19908;-66
2021/12/06 11:20:49;;;;;;;;;;;6.70;99.90;;;;;;8430363;28;19908;-67
2021/12/06 11:24:51;;;;;;;;;;;10.10;99.90;;;;;;8401936;28;20303;-67
2021/12/06 11:28:52;;;;;;;;;;;13.00;99.90;;;;;;8382630;28;20321;-67
2021/12/06 11:32:54;;;;;;;;;;;13.10;99.90;;;;;;8379086;28;19916;-66
2021/12/06 11:36:54;;;;;;;;;;;13.50;99.90;;;;;;8378721;28;19966;-66
2021/12/06 11:40:56;;;;;;;;;;;13.10;99.90;;;;;;8384931;28;19908;-66
2021/12/06 11:44:58;;;;;;;;;;;14.60;99.90;;;;;;8380924;28;20319;-67
2021/12/06 11:48:58;;;;;;;;;;;16.20;94.10;;;;;;8382070;28;19916;-67
2021/12/06 11:53:02;;;;;;;;;;;18.60;83.70;;;;;;8378544;28;19944;-67
2021/12/06 11:57:18;;;;;;;;;;;18.70;76.40;;;;;;8382369;28;19955;-66
2021/12/06 12:01:41;;;;;;;;;;;16.60;77.80;;;;;;8377296;28;19920;-67
2021/12/06 12:05:41;;;;;;;;;;;12.90;90.40;;;;;;8367907;28;20581;-67
2021/12/06 12:09:42;;;;;;;;;;;10.30;97.80;;;;;;8363670;28;19909;-67
2021/12/06 12:13:43;;;;;;;;;;;8.60;99.90;;;;;;8385828;28;19919;-66
2021/12/06 12:17:46;;;;;;;;;;;7.20;99.90;;;;;;8391177;28;19912;-66
2021/12/06 12:21:46;;;;;;;;;;;6.80;99.90;;;;;;8376965;28;20296;-66
2021/12/06 12:26:01;;;;;;;;;;;8.70;99.90;;;;;;8373381;28;19916;-66
2021/12/06 12:30:03;;;;;;;;;;;9.50;99.90;;;;;;8384848;28;19912;-66
2021/12/06 12:34:03;;;;;;;;;;;10.00;99.90;;;;;;8376062;28;19920;-67
2021/12/06 12:38:04;;;;;;;;;;;12.00;99.90;;;;;;8376689;28;19948;-66
2021/12/06 12:42:06;;;;;;;;;;;11.30;99.90;;;;;;8378776;28;20375;-66
2021/12/06 12:50:14;;;;;;;;;;;10.20;99.90;;;;;;8370422;22;19932;-63
2021/12/06 12:54:33;;;;;;;;;;;9.60;99.90;;;;;;8343524;28;19916;-63
2021/12/06 12:58:39;;;;;;;;;;;9.50;99.90;;;;;;8361247;28;20307;-63
2021/12/06 13:02:40;;;;;;;;;;;10.00;99.90;;;;;;8376926;28;20462;-62
2021/12/06 13:06:40;;;;;;;;;;;10.10;99.90;;;;;;8375847;28;19943;-63
2021/12/06 13:10:43;;;;;;;;;;;9.60;99.90;;;;;;8375213;28;19913;-63
2021/12/06 13:14:52;;;;;;;;;;;10.10;99.90;;;;;;8374389;28;19991;-63
2021/12/06 13:19:12;;;;;;;;;;;10.60;99.90;;;;;;8371872;28;19913;-62
2021/12/06 13:23:14;;;;;;;;;;;11.10;99.90;;;;;;8376317;28;19912;-63
2021/12/06 13:27:17;;;;;;;;;;;8.50;99.90;;;;;;8374838;28;19909;-62
2021/12/06 13:31:25;;;;;;;;;;;6.40;99.90;;;;;;8374959;28;20009;-63
2021/12/06 13:35:31;;;;;;;;;;;5.20;99.90;;;;;;8375519;28;19948;-63
2021/12/06 13:39:32;;;;;;;;;;;4.90;99.90;;;;;;8377393;28;20129;-63
2021/12/06 13:43:34;;;;;;;;;;;4.70;99.90;;;;;;8374766;28;19978;-63
2021/12/06 13:47:34;;;;;;;;;;;4.50;99.90;;;;;;8368624;28;19916;-62
2021/12/06 13:51:37;;;;;;;;;;;4.30;99.90;;;;;;8375999;28;19962;-62
2021/12/06 13:55:40;;;;;;;;;;;4.20;99.90;;;;;;8376920;28;19990;-63
2021/12/06 13:59:43;;;;;;;;;;;4.00;99.90;;;;;;8376016;28;19921;-62
2021/12/06 14:03:45;;;;;;;;;;;3.90;99.90;;;;;;8376279;28;19924;-62
2021/12/06 14:07:47;;;;;;;;;;;3.80;99.90;;;;;;8375871;28;20376;-62
2021/12/06 14:11:51;;;;;;;;;;;3.90;99.90;;;;;;8380173;28;19912;-62
2021/12/06 14:15:54;;;;;;;;;;;3.80;99.90;;;;;;8370771;28;19916;-62
2021/12/06 14:19:55;;;;;;;;;;;3.80;99.90;;;;;;8371791;28;19912;-62
2021/12/06 14:23:57;;;;;;;;;;;3.70;99.90;;;;;;8372940;28;19927;-62
2021/12/06 14:27:57;;;;;;;;;;;3.70;99.90;;;;;;8385144;28;19960;-61
2021/12/06 14:31:59;;;;;;;;;;;3.80;99.90;;;;;;8392553;28;19908;-62
2021/12/06 14:36:00;;;;;;;;;;;3.70;99.90;;;;;;8381227;28;19965;-61
2021/12/06 14:40:02;;;;;;;;;;;3.70;99.90;;;;;;8392481;28;19916;-61
2021/12/06 14:44:03;;;;;;;;;;;3.60;99.90;;;;;;8392650;28;20410;-62
2021/12/06 14:48:08;;;;;;;;;;;3.60;99.90;;;;;;8390324;28;19916;-62
2021/12/06 14:52:15;;;;;;;;;;;3.60;99.90;;;;;;8397955;28;20319;-61
2021/12/06 15:00:37;;;;;;;;;;;3.70;99.90;;;;;;8378016;28;19963;-62
2021/12/06 15:04:40;;;;;;;;;;;3.70;99.90;;;;;;8380522;28;20453;-62
2021/12/06 15:08:43;;;;;;;;;;;3.60;99.90;;;;;;8385415;28;19919;-63
2021/12/06 15:24:10;;;;;;;;;;;3.60;99.90;;;;;;8453262;27;19951;-66
2021/12/06 15:28:11;;;;;;;;;;;3.20;99.90;;;;;;8451105;28;20007;-66
2021/12/06 15:32:12;;;;;;;;;;;3.00;99.90;;;;;;8450256;28;20262;-65
2021/12/06 15:36:14;;;;;;;;;;;2.90;99.90;;;;;;8474476;22;19927;-62
2021/12/06 15:40:15;;;;;;;;;;;2.80;99.90;;;;;;8449480;28;19924;-62
2021/12/06 15:44:21;;;;;;;;;;;2.60;99.90;;;;;;8450969;28;19973;-63
2021/12/06 15:48:23;;;;;;;;;;;2.40;99.90;;;;;;8451027;28;19912;-63
2021/12/06 15:52:25;;;;;;;;;;;2.20;99.90;;;;;;8450058;28;20299;-63
2021/12/06 15:56:26;;;;;;;;;;;2.20;99.90;;;;;;8425973;28;20334;-63
2021/12/06 16:00:30;;;;;;;;;;;2.10;99.90;;;;;;8448843;28;19923;-63
2021/12/06 16:04:32;;;;;;;;;;;2.10;99.90;;;;;;8415964;28;19912;-63
2021/12/06 16:08:37;;;;;;;;;;;1.90;99.90;;;;;;8433902;28;19916;-63
2021/12/06 16:12:58;;;;;;;;;;;1.70;99.90;;;;;;8457658;28;19969;-63
2021/12/06 16:16:59;;;;;;;;;;;1.60;99.90;;;;;;8451789;28;19912;-63
2021/12/06 16:21:02;;;;;;;;;;;1.60;99.90;;;;;;8452009;28;19912;-63
2021/12/06 16:25:03;;;;;;;;;;;1.60;99.90;;;;;;8430576;28;19919;-63
2021/12/06 16:29:06;;;;;;;;;;;1.50;99.90;;;;;;8430098;28;20003;-62
2021/12/06 16:33:07;;;;;;;;;;;1.60;99.90;;;;;;8428708;28;19924;-63
2021/12/06 16:37:07;;;;;;;;;;;1.40;99.90;;;;;;8430345;28;19938;-63
2021/12/06 16:41:12;;;;;;;;;;;1.30;99.90;;;;;;8429014;28;20002;-63
2021/12/06 16:45:17;;;;;;;;;;;1.20;99.90;;;;;;8431838;28;19912;-63
2021/12/06 16:49:26;;;;;;;;;;;1.10;99.90;;;;;;8429981;28;19908;-63
2021/12/06 16:53:28;;;;;;;;;;;1.10;99.90;;;;;;8428856;28;20008;-63
2021/12/06 16:57:34;;;;;;;;;;;1.00;99.90;;;;;;8428552;28;20003;-63
2021/12/06 17:01:35;;;;;;;;;;;1.10;99.90;;;;;;8427864;28;19916;-63
2021/12/06 17:05:35;;;;;;;;;;;1.20;99.90;;;;;;8409535;28;19916;-63
2021/12/06 17:09:36;;;;;;;;;;;1.10;99.90;;;;;;8427273;28;20080;-63
2021/12/06 17:13:38;;;;;;;;;;;1.00;99.90;;;;;;8433067;28;20001;-64
2021/12/06 17:17:43;;;;;;;;;;;0.90;99.90;;;;;;8410062;28;19943;-63
2021/12/06 17:21:45;;;;;;;;;;;1.00;99.90;;;;;;8427234;28;19912;-63
2021/12/06 17:25:47;;;;;;;;;;;0.90;99.90;;;;;;8427018;28;19916;-65
2021/12/06 17:29:52;;;;;;;;;;;0.60;99.90;;;;;;8425122;28;20401;-65
2021/12/06 17:33:54;;;;;;;;;;;0.50;99.90;;;;;;8439464;28;19920;-66
2021/12/06 17:37:55;;;;;;;;;;;0.40;99.90;;;;;;8419629;28;19977;-66
2021/12/06 17:41:56;;;;;;;;;;;0.30;99.90;;;;;;8421629;28;20268;-66
2021/12/06 17:45:57;;;;;;;;;;;0.30;99.90;;;;;;8420348;28;20019;-65
2021/12/06 17:49:58;;;;;;;;;;;0.40;99.90;;;;;;8422479;28;19916;-66
2021/12/06 17:53:58;;;;;;;;;;;0.30;99.90;;;;;;8423007;28;20579;-65
2021/12/06 17:58:11;;;;;;;;;;;0.20;99.90;;;;;;8423869;28;19938;-65
2021/12/06 18:02:11;;;;;;;;;;;0.30;99.90;;;;;;8422241;28;20575;-66
2021/12/06 18:06:12;;;;;;;;;;;0.30;99.90;;;;;;8423731;28;19919;-66
2021/12/06 18:10:14;;;;;;;;;;;0.10;99.90;;;;;;8422934;28;19922;-66
2021/12/06 18:14:16;;;;;;;;;;;-0.10;99.90;;;;;;8423687;28;19928;-66
2021/12/06 18:18:18;;;;;;;;;;;-0.20;99.90;;;;;;8422502;28;20582;-65
2021/12/06 18:22:18;;;;;;;;;;;-0.10;99.90;;;;;;8423531;28;20500;-65
2021/12/06 18:26:19;;;;;;;;;;;0.20;99.90;;;;;;8422189;28;19923;-65
2021/12/06 18:30:20;;;;;;;;;;;0.20;99.90;;;;;;8400806;28;19916;-66
2021/12/06 18:34:21;;;;;;;;;;;0.30;99.90;;;;;;8421908;28;19916;-65
2021/12/06 18:38:26;;;;;;;;;;;0.40;99.90;;;;;;8410621;28;19973;-65
2021/12/06 18:42:29;;;;;;;;;;;0.30;99.90;;;;;;8418398;28;20409;-67
2021/12/06 18:46:31;;;;;;;;;;;0.40;99.90;;;;;;8419592;28;19968;-66
2021/12/06 18:50:34;;;;;;;;;;;0.40;99.90;;;;;;8418798;28;20307;-65
2021/12/06 18:54:35;;;;;;;;;;;0.40;99.90;;;;;;8421696;28;19916;-65
2021/12/06 18:58:36;;;;;;;;;;;0.40;99.90;;;;;;8419100;28;19938;-65
2021/12/06 19:02:37;;;;;;;;;;;0.50;99.90;;;;;;8390328;28;19961;-65
2021/12/06 19:06:39;;;;;;;;;;;0.50;99.90;;;;;;8419907;28;19920;-65
2021/12/06 19:10:41;;;;;;;;;;;0.50;99.90;;;;;;8420999;28;20395;-65
2021/12/06 19:14:42;;;;;;;;;;;0.40;99.90;;;;;;8423130;28;20383;-64
2021/12/06 19:31:55;;;;;;;;;;;0.40;99.90;;;;;;8451220;27;19948;-65
2021/12/06 19:35:56;;;;;;;;;;;0.40;99.90;;;;;;8433311;28;19920;-65
2021/12/06 19:39:57;;;;;;;;;;;0.30;99.90;;;;;;8425192;28;19916;-64
2021/12/06 19:43:57;;;;;;;;;;;0.20;99.90;;;;;;8426307;28;20368;-64
2021/12/06 19:47:58;;;;;;;;;;;0.40;99.90;;;;;;8435121;28;20294;-64
2021/12/06 19:52:00;;;;;;;;;;;0.20;99.90;;;;;;8410664;28;19920;-65
2021/12/06 19:56:01;;;;;;;;;;;0.10;99.90;;;;;;8414091;28;19955;-65
2021/12/06 20:00:03;;;;;;;;;;;0.30;99.90;;;;;;8427118;28;19942;-65
2021/12/06 20:04:05;;;;;;;;;;;0.30;99.90;;;;;;8425244;28;19972;-65
2021/12/06 20:08:07;;;;;;;;;;;0.30;99.90;;;;;;8427537;28;20268;-65
2021/12/06 20:12:09;;;;;;;;;;;0.30;99.90;;;;;;8437070;28;19951;-64
2021/12/06 20:16:10;;;;;;;;;;;0.20;99.90;;;;;;8425881;28;20608;-65
2021/12/06 20:20:12;;;;;;;;;;;0.20;99.90;;;;;;8416919;28;21131;-65
2021/12/06 20:24:12;;;;;;;;;;;0.10;99.90;;;;;;8436378;28;19962;-64
2021/12/06 20:28:13;;;;;;;;;;;-0.10;99.90;;;;;;8437493;28;19951;-64
2021/12/06 20:32:14;;;;;;;;;;;-0.30;99.90;;;;;;8411443;28;19979;-65
2021/12/06 20:36:15;;;;;;;;;;;-0.40;99.90;;;;;;8423976;28;19916;-65
2021/12/06 20:40:16;;;;;;;;;;;-0.50;99.90;;;;;;8423224;28;20482;-65
2021/12/06 20:44:16;;;;;;;;;;;-0.50;99.90;;;;;;8424298;22;19975;-65
2021/12/06 20:48:17;;;;;;;;;;;-0.60;99.90;;;;;;8333628;28;19974;-66
2021/12/06 20:52:18;;;;;;;;;;;-0.70;99.90;;;;;;8343414;28;19921;-64
2021/12/06 20:56:18;;;;;;;;;;;-0.70;99.90;;;;;;8307264;28;19917;-65
2021/12/06 21:00:20;;;;;;;;;;;-0.80;99.90;;;;;;8307601;28;19956;-65
2021/12/06 21:04:22;;;;;;;;;;;-0.80;99.90;;;;;;8325233;28;20316;-64
2021/12/06 21:08:22;;;;;;;;;;;-0.80;99.90;;;;;;8324904;28;19925;-64
2021/12/06 21:16:36;;;;;;;;;;;-0.90;99.90;;;;;;8323087;28;19919;-65
2021/12/06 21:20:36;;;;;;;;;;;-1.10;99.90;;;;;;8324751;28;19928;-65
2021/12/06 21:24:40;;;;;;;;;;;-1.20;99.90;;;;;;8325536;28;19913;-64
2021/12/06 21:28:40;;;;;;;;;;;-1.10;99.90;;;;;;8325560;28;19949;-65
2021/12/06 21:32:41;;;;;;;;;;;-0.90;99.90;;;;;;8323959;28;19933;-64
2021/12/06 21:36:43;;;;;;;;;;;-1.00;99.90;;;;;;8323837;28;19917;-64
2021/12/06 21:40:44;;;;;;;;;;;-0.70;99.90;;;;;;8322107;28;20452;-62
2021/12/06 21:44:44;;;;;;;;;;;-0.70;99.90;;;;;;8323447;28;19920;-64
2021/12/06 21:48:45;;;;;;;;;;;-0.70;99.90;;;;;;8322527;28;19928;-64
2021/12/06 21:52:47;;;;;;;;;;;-0.90;99.90;;;;;;8323115;28;19913;-65
2021/12/06 21:56:47;;;;;;;;;;;-1.00;99.90;;;;;;8304875;28;20000;-64
2021/12/06 22:00:52;;;;;;;;;;;-1.00;99.90;;;;;;8324233;28;20380;-63
2021/12/06 22:04:52;;;;;;;;;;;-0.80;99.90;;;;;;8327948;28;19957;-66
2021/12/06 22:08:53;;;;;;;;;;;-0.80;99.90;;;;;;8328399;28;19913;-66
2021/12/06 22:12:53;;;;;;;;;;;-0.60;99.90;;;;;;8327586;28;19909;-66
2021/12/06 22:16:58;;;;;;;;;;;-0.50;99.90;;;;;;8327546;28;19913;-66
2021/12/06 22:20:59;;;;;;;;;;;-0.40;99.90;;;;;;8327343;28;20399;-66
2021/12/06 22:25:00;;;;;;;;;;;-0.40;99.90;;;;;;8309454;28;19918;-66
2021/12/06 22:29:01;;;;;;;;;;;-0.20;99.90;;;;;;8326389;28;19913;-67
2021/12/06 22:33:01;;;;;;;;;;;-0.20;99.90;;;;;;8327261;28;19960;-66
2021/12/06 22:37:02;;;;;;;;;;;-0.10;99.90;;;;;;8327036;28;19916;-66
2021/12/06 22:41:02;;;;;;;;;;;0.10;99.90;;;;;;8326842;28;19971;-65
2021/12/06 22:45:04;;;;;;;;;;;0.10;99.90;;;;;;8326443;28;19917;-67
2021/12/06 22:49:07;;;;;;;;;;;-0.10;99.90;;;;;;8326018;28;19921;-66
2021/12/06 22:53:08;;;;;;;;;;;-0.30;99.90;;;;;;8325913;28;19909;-66
2021/12/06 22:57:09;;;;;;;;;;;-0.20;99.90;;;;;;8326339;28;20508;-66
2021/12/06 23:01:20;;;;;;;;;;;-0.20;99.90;;;;;;8326221;28;19971;-67
2021/12/06 23:05:22;;;;;;;;;;;-0.10;99.90;;;;;;8323972;28;20032;-66
2021/12/06 23:09:22;;;;;;;;;;;-0.20;99.90;;;;;;8323874;28;19928;-66
2021/12/06 23:13:23;;;;;;;;;;;-0.20;99.90;;;;;;8306298;28;19910;-66
2021/12/06 23:17:24;;;;;;;;;;;-0.10;99.90;;;;;;8326043;28;20005;-66
2021/12/06 23:21:25;;;;;;;;;;;0.00;99.90;;;;;;8325455;28;19943;-66
2021/12/06 23:25:27;;;;;;;;;;;0.00;99.90;;;;;;8325517;28;19913;-66
2021/12/06 23:29:27;;;;;;;;;;;0.00;99.90;;;;;;8326548;28;19999;-66
2021/12/06 23:33:29;;;;;;;;;;;0.00;99.90;;;;;;8325631;28;19916;-65
2021/12/06 23:37:32;;;;;;;;;;;0.00;99.90;;;;;;8325484;28;19909;-65
2021/12/06 23:41:41;;;;;;;;;;;0.00;99.90;;;;;;8325438;28;19939;-67
2021/12/06 23:50:00;;;;;;;;;;;0.20;99.90;;;;;;8325039;28;19921;-66
2021/12/06 23:54:01;;;;;;;;;;;0.30;99.90;;;;;;8324398;28;19917;-66
2021/12/06 23:58:01;;;;;;;;;;;0.50;99.90;;;;;;8325189;28;19924;-67
